Time;durP1;ratioP1;P1;durP2;ratioP2;P2;SDS_P1;SDS_P2;PMS_P1;PMS_P2;Temp;Humidity;BMP_temperature;BMP_pressure;BME280_temperature;BME280_humidity;BME280_pressure;Samples;Min_cycle;Max_cycle;Signal;HPM_P1;HPM_P2
2023/06/02 00:01:13;;;;;;;11.70;3.97;;;10.40;99.90;;;;;;5054054;28;20194;-70
2023/06/02 00:03:40;;;;;;;14.30;3.80;;;10.40;99.90;;;;;;5047235;28;20048;-70
2023/06/02 00:06:11;;;;;;;13.17;3.90;;;10.40;99.90;;;;;;5045797;28;20123;-70
2023/06/02 00:08:39;;;;;;;13.23;4.00;;;10.40;99.90;;;;;;5044518;28;20048;-70
2023/06/02 00:11:06;;;;;;;16.10;3.97;;;10.40;99.90;;;;;;5059755;28;20037;-69
2023/06/02 00:13:33;;;;;;;12.27;3.70;;;10.40;99.90;;;;;;5055912;28;20049;-69
2023/06/02 00:15:59;;;;;;;13.77;4.13;;;10.40;99.90;;;;;;5062651;28;20254;-70
2023/06/02 00:18:25;;;;;;;14.60;3.63;;;10.40;99.90;;;;;;5051300;28;20051;-70
2023/06/02 00:20:51;;;;;;;13.87;3.83;;;10.40;99.90;;;;;;5065525;28;20068;-70
2023/06/02 00:23:18;;;;;;;13.20;3.90;;;10.40;99.90;;;;;;5039636;28;20102;-71
2023/06/02 00:25:45;;;;;;;12.40;3.90;;;10.30;99.90;;;;;;5025377;28;20053;-70
2023/06/02 00:28:11;;;;;;;13.33;3.57;;;10.30;99.90;;;;;;5054543;28;20064;-70
2023/06/02 00:30:37;;;;;;;12.07;3.73;;;10.30;99.90;;;;;;5053238;28;20048;-70
2023/06/02 00:33:03;;;;;;;8.43;3.10;;;10.30;99.90;;;;;;5039064;28;20098;-69
2023/06/02 00:35:29;;;;;;;14.20;3.60;;;10.30;99.90;;;;;;5019858;28;20037;-70
2023/06/02 00:37:55;;;;;;;13.67;4.13;;;10.30;99.90;;;;;;5020818;28;20687;-70
2023/06/02 00:40:22;;;;;;;12.13;4.00;;;10.30;99.90;;;;;;5017114;28;20060;-70
2023/06/02 00:42:48;;;;;;;11.60;4.07;;;10.30;99.90;;;;;;5054273;28;20075;-70
2023/06/02 00:45:16;;;;;;;12.83;3.93;;;10.30;99.90;;;;;;5035697;28;20036;-70
2023/06/02 00:47:41;;;;;;;13.53;4.43;;;10.30;99.90;;;;;;5059582;28;20049;-70
2023/06/02 00:50:08;;;;;;;17.23;4.33;;;10.30;99.90;;;;;;5066288;28;20485;-70
2023/06/02 00:52:34;;;;;;;12.47;3.60;;;10.30;99.90;;;;;;5052116;28;20101;-70
2023/06/02 00:55:03;;;;;;;14.43;3.67;;;10.30;99.90;;;;;;5056572;28;20061;-70
2023/06/02 00:57:33;;;;;;;14.63;4.50;;;10.20;99.90;;;;;;5036876;28;20049;-70
2023/06/02 01:00:00;;;;;;;12.03;3.87;;;10.20;99.90;;;;;;5020696;28;20481;-70
2023/06/02 01:02:26;;;;;;;17.43;4.10;;;10.20;99.90;;;;;;5052560;28;20059;-70
2023/06/02 01:04:57;;;;;;;12.63;4.07;;;10.20;99.90;;;;;;5052170;28;20057;-70
2023/06/02 01:07:25;;;;;;;16.83;3.63;;;10.10;99.90;;;;;;5051637;28;20052;-70
2023/06/02 01:09:56;;;;;;;16.60;4.30;;;10.20;99.90;;;;;;5051570;28;20048;-70
2023/06/02 01:12:23;;;;;;;20.48;3.90;;;10.10;99.90;;;;;;5041482;28;20044;-70
2023/06/02 01:14:49;;;;;;;16.10;3.97;;;10.10;99.90;;;;;;5063424;28;20059;-70
2023/06/02 01:17:15;;;;;;;15.27;3.83;;;10.10;99.90;;;;;;5052753;28;20038;-69
2023/06/02 01:19:42;;;;;;;15.17;4.63;;;10.10;99.90;;;;;;5043144;28;20040;-70
2023/06/02 01:22:10;;;;;;;10.83;4.00;;;10.00;99.90;;;;;;5053463;28;20166;-70
2023/06/02 01:24:40;;;;;;;12.77;4.13;;;10.00;99.90;;;;;;5050875;28;20037;-70
2023/06/02 01:27:12;;;;;;;16.30;4.00;;;10.00;99.90;;;;;;5038684;28;21952;-70
2023/06/02 01:29:39;;;;;;;12.23;3.58;;;10.10;99.90;;;;;;5040812;28;20045;-70
2023/06/02 01:32:28;;;;;;;12.23;3.53;;;10.00;99.90;;;;;;5024083;28;20036;-70
2023/06/02 01:35:03;;;;;;;14.43;3.63;;;10.00;99.90;;;;;;5040972;28;20658;-69
2023/06/02 01:37:32;;;;;;;10.07;3.70;;;10.00;99.90;;;;;;5035983;28;20051;-70
2023/06/02 01:40:00;;;;;;;16.13;4.07;;;10.00;99.90;;;;;;5034229;28;20118;-70
2023/06/02 01:42:26;;;;;;;11.33;3.10;;;10.00;99.90;;;;;;5062007;28;20055;-70
2023/06/02 01:44:51;;;;;;;14.20;3.80;;;10.00;99.90;;;;;;5049501;28;20049;-70
2023/06/02 01:47:18;;;;;;;13.57;3.93;;;10.00;99.90;;;;;;5034612;28;20055;-70
2023/06/02 01:49:43;;;;;;;15.83;3.87;;;10.00;99.90;;;;;;5055775;28;20036;-70
2023/06/02 01:52:09;;;;;;;12.50;3.50;;;10.00;99.90;;;;;;5035328;28;20063;-70
2023/06/02 01:54:36;;;;;;;11.90;3.50;;;10.00;99.90;;;;;;5062117;28;20360;-70
2023/06/02 01:57:02;;;;;;;13.00;4.40;;;10.00;99.90;;;;;;5052687;28;20047;-70
2023/06/02 01:59:28;;;;;;;11.93;3.83;;;10.00;99.90;;;;;;5034111;28;20095;-70
2023/06/02 02:01:54;;;;;;;12.87;3.70;;;10.00;99.90;;;;;;5048118;28;20335;-70
2023/06/02 02:04:20;;;;;;;16.80;3.90;;;10.00;99.90;;;;;;5043370;28;20089;-70
2023/06/02 02:06:49;;;;;;;12.03;3.47;;;10.00;99.90;;;;;;5046690;28;20068;-70
2023/06/02 02:09:15;;;;;;;13.77;3.47;;;10.00;99.90;;;;;;5050980;28;20040;-71
2023/06/02 02:11:41;;;;;;;15.43;3.60;;;10.00;99.90;;;;;;5037245;28;20503;-70
2023/06/02 02:14:06;;;;;;;14.00;3.40;;;10.00;99.90;;;;;;5036439;28;20040;-70
2023/06/02 02:16:32;;;;;;;14.10;3.60;;;10.00;99.90;;;;;;5064268;28;20065;-70
2023/06/02 02:18:58;;;;;;;15.73;3.73;;;10.00;99.90;;;;;;5031228;28;20114;-70
2023/06/02 02:21:27;;;;;;;14.07;3.37;;;10.00;99.90;;;;;;5055130;28;20040;-70
2023/06/02 02:23:54;;;;;;;14.23;3.33;;;10.00;99.90;;;;;;5041994;28;20502;-70
2023/06/02 02:26:20;;;;;;;12.77;3.77;;;10.10;99.90;;;;;;5059144;28;20292;-70
2023/06/02 02:28:46;;;;;;;15.10;3.40;;;10.10;99.90;;;;;;5040806;28;21228;-70
2023/06/02 02:31:12;;;;;;;11.80;3.53;;;10.10;99.90;;;;;;5025760;28;20574;-70
2023/06/02 02:33:38;;;;;;;14.07;3.83;;;10.10;99.90;;;;;;5009243;28;20305;-70
2023/06/02 02:36:04;;;;;;;12.03;3.27;;;10.10;99.90;;;;;;5039949;28;20053;-70
2023/06/02 02:38:30;;;;;;;16.17;3.73;;;10.10;99.90;;;;;;5060822;28;20045;-69
2023/06/02 02:40:55;;;;;;;17.23;3.63;;;10.10;99.90;;;;;;5026295;28;20426;-70
2023/06/02 02:43:21;;;;;;;15.07;4.07;;;10.10;99.90;;;;;;5037924;28;20144;-70
2023/06/02 02:45:47;;;;;;;11.93;3.37;;;10.10;99.90;;;;;;5024477;28;20116;-69
2023/06/02 02:48:13;;;;;;;10.70;3.30;;;10.10;99.90;;;;;;5058526;28;20166;-70
2023/06/02 02:50:39;;;;;;;12.80;3.83;;;10.10;99.90;;;;;;5058070;28;20037;-70
2023/06/02 02:53:04;;;;;;;8.60;3.40;;;10.10;99.90;;;;;;5020762;28;20044;-71
2023/06/02 02:55:32;;;;;;;10.23;3.40;;;10.10;99.90;;;;;;5063292;28;20060;-70
2023/06/02 02:58:01;;;;;;;14.47;3.80;;;10.10;99.90;;;;;;5056663;28;20048;-69
2023/06/02 03:00:27;;;;;;;13.40;4.13;;;10.10;99.90;;;;;;5057227;28;20048;-70
2023/06/02 03:02:56;;;;;;;16.83;3.47;;;10.10;99.90;;;;;;5037721;28;20032;-69
2023/06/02 03:05:22;;;;;;;15.47;3.10;;;10.10;99.90;;;;;;5021103;28;20091;-70
2023/06/02 03:07:49;;;;;;;13.53;3.33;;;10.20;99.90;;;;;;5063249;28;20046;-69
2023/06/02 03:10:15;;;;;;;21.40;3.90;;;10.20;99.90;;;;;;5042364;28;20533;-69
2023/06/02 03:12:41;;;;;;;16.90;3.43;;;10.20;99.90;;;;;;5042354;28;20143;-70
2023/06/02 03:15:07;;;;;;;13.23;3.43;;;10.20;99.90;;;;;;5026985;28;20059;-69
2023/06/02 03:17:32;;;;;;;11.23;3.53;;;10.20;99.90;;;;;;5041252;28;20591;-68
2023/06/02 03:19:58;;;;;;;15.03;3.40;;;10.20;99.90;;;;;;5052276;28;20049;-70
2023/06/02 03:22:24;;;;;;;14.67;4.10;;;10.20;99.90;;;;;;5035932;28;20049;-70
2023/06/02 03:24:50;;;;;;;11.87;3.17;;;10.20;99.90;;;;;;5065611;28;20064;-70
2023/06/02 03:27:16;;;;;;;11.00;2.80;;;10.20;99.90;;;;;;5063196;28;20044;-69
2023/06/02 03:29:42;;;;;;;13.13;3.20;;;10.20;99.90;;;;;;5034364;28;20040;-70
2023/06/02 03:32:10;;;;;;;16.40;3.70;;;10.20;99.90;;;;;;5032153;28;20041;-70
2023/06/02 03:34:39;;;;;;;16.57;3.63;;;10.20;99.90;;;;;;5030979;28;20129;-69
2023/06/02 03:37:05;;;;;;;16.20;3.67;;;10.20;99.90;;;;;;5048918;28;20897;-70
2023/06/02 03:39:31;;;;;;;18.27;4.20;;;10.20;99.90;;;;;;5014889;28;20048;-71
2023/06/02 03:41:57;;;;;;;13.90;3.60;;;10.20;99.90;;;;;;5022995;28;20079;-71
2023/06/02 03:44:22;;;;;;;16.30;3.47;;;10.20;99.90;;;;;;5016668;28;20128;-70
2023/06/02 03:46:48;;;;;;;24.97;4.33;;;10.20;99.90;;;;;;5038090;28;20083;-70
2023/06/02 03:49:14;;;;;;;17.80;3.70;;;10.30;99.90;;;;;;5016464;28;20052;-70
2023/06/02 03:51:43;;;;;;;16.50;3.33;;;10.20;99.90;;;;;;5019006;28;20416;-70
2023/06/02 03:54:09;;;;;;;11.23;3.33;;;10.30;99.90;;;;;;5036718;28;20053;-70
2023/06/02 03:56:34;;;;;;;15.83;3.70;;;10.30;99.90;;;;;;5038761;28;20060;-70
2023/06/02 03:59:00;;;;;;;16.87;3.20;;;10.30;99.90;;;;;;5019933;28;20062;-70
2023/06/02 04:01:27;;;;;;;14.10;3.80;;;10.30;99.90;;;;;;5018673;28;20083;-70
2023/06/02 04:03:53;;;;;;;13.97;3.70;;;10.30;99.90;;;;;;5036190;28;20094;-70
2023/06/02 04:06:18;;;;;;;14.83;3.40;;;10.30;99.90;;;;;;5020589;28;20101;-70
2023/06/02 04:08:46;;;;;;;15.50;3.60;;;10.30;99.90;;;;;;5020360;28;20044;-70
2023/06/02 04:11:12;;;;;;;11.57;3.57;;;10.30;99.90;;;;;;5037706;28;20049;-70
2023/06/02 04:13:38;;;;;;;16.43;4.13;;;10.40;99.90;;;;;;5035539;28;20056;-70
2023/06/02 04:16:04;;;;;;;13.83;3.70;;;10.40;99.90;;;;;;5039270;28;20529;-70
2023/06/02 04:18:31;;;;;;;15.10;3.90;;;10.40;99.90;;;;;;5038298;28;20047;-70
2023/06/02 04:20:57;;;;;;;16.23;3.80;;;10.40;99.90;;;;;;5035588;28;20106;-70
2023/06/02 04:23:23;;;;;;;11.43;3.10;;;10.40;99.90;;;;;;5035954;28;20136;-70
2023/06/02 04:25:49;;;;;;;13.73;3.53;;;10.40;99.90;;;;;;5020069;28;21023;-70
2023/06/02 04:28:15;;;;;;;14.40;3.53;;;10.40;99.90;;;;;;5019524;28;20152;-70
2023/06/02 04:30:41;;;;;;;11.57;3.47;;;10.50;99.90;;;;;;5037411;28;20889;-70
2023/06/02 04:33:08;;;;;;;15.60;3.33;;;10.50;99.90;;;;;;5035703;28;20056;-70
2023/06/02 04:35:35;;;;;;;14.37;3.27;;;10.50;99.90;;;;;;5034821;28;20053;-70
2023/06/02 04:38:01;;;;;;;15.33;4.57;;;10.50;99.90;;;;;;5015953;28;20049;-71
2023/06/02 04:40:27;;;;;;;14.13;3.17;;;10.60;99.90;;;;;;5030419;28;20052;-70
2023/06/02 04:42:52;;;;;;;16.80;3.90;;;10.60;99.90;;;;;;5036924;28;20049;-70
2023/06/02 04:45:20;;;;;;;12.27;3.87;;;10.60;99.90;;;;;;5018225;28;20041;-70
2023/06/02 04:47:46;;;;;;;12.00;3.20;;;10.60;99.90;;;;;;5038329;28;20140;-70
2023/06/02 04:50:14;;;;;;;15.53;3.90;;;10.60;99.90;;;;;;5038332;28;20049;-70
2023/06/02 04:52:41;;;;;;;13.07;4.17;;;10.70;99.90;;;;;;5020028;28;20050;-70
2023/06/02 04:55:08;;;;;;;12.53;3.60;;;10.70;99.90;;;;;;5024231;28;20041;-70
2023/06/02 04:57:36;;;;;;;13.80;3.70;;;10.80;99.90;;;;;;5037664;28;20052;-70
2023/06/02 05:00:04;;;;;;;12.47;3.67;;;10.80;99.90;;;;;;5040596;28;20033;-70
2023/06/02 05:02:30;;;;;;;17.80;4.67;;;10.80;99.90;;;;;;5021399;28;20076;-70
2023/06/02 05:04:56;;;;;;;12.87;3.97;;;10.80;99.90;;;;;;5001986;28;20041;-70
2023/06/02 05:07:22;;;;;;;13.13;3.90;;;10.80;99.90;;;;;;5022618;28;20154;-71
2023/06/02 05:09:48;;;;;;;17.67;3.87;;;10.90;99.90;;;;;;5042184;28;20107;-71
2023/06/02 05:12:16;;;;;;;11.50;3.90;;;10.90;99.90;;;;;;5022109;28;20045;-70
2023/06/02 05:14:44;;;;;;;20.07;4.93;;;11.00;99.90;;;;;;5022524;28;20055;-70
2023/06/02 05:17:10;;;;;;;13.83;4.60;;;11.00;99.90;;;;;;5041046;28;20044;-70
2023/06/02 05:19:39;;;;;;;13.73;4.07;;;11.00;99.90;;;;;;5002912;28;20040;-69
2023/06/02 05:22:05;;;;;;;13.40;3.83;;;11.10;99.90;;;;;;5022049;28;20053;-70
2023/06/02 05:24:31;;;;;;;20.10;4.63;;;11.10;99.90;;;;;;5005372;28;20467;-70
2023/06/02 05:26:56;;;;;;;15.17;4.33;;;11.10;99.90;;;;;;5002753;28;20112;-69
2023/06/02 05:29:22;;;;;;;15.73;4.07;;;11.10;99.90;;;;;;5022213;28;20062;-70
2023/06/02 05:31:48;;;;;;;17.57;4.23;;;11.20;99.90;;;;;;5017621;28;20159;-69
2023/06/02 05:34:13;;;;;;;20.17;4.30;;;11.20;99.90;;;;;;5033346;28;20052;-69
2023/06/02 05:36:39;;;;;;;16.23;4.40;;;11.20;99.90;;;;;;5015266;28;20519;-69
2023/06/02 05:39:05;;;;;;;14.70;4.50;;;11.20;99.90;;;;;;5019266;28;20657;-69
2023/06/02 05:41:30;;;;;;;12.37;3.63;;;11.20;99.90;;;;;;5059085;28;20060;-69
2023/06/02 05:43:56;;;;;;;19.67;4.90;;;11.20;99.90;;;;;;5033681;28;20045;-68
2023/06/02 05:46:22;;;;;;;17.40;4.67;;;11.30;99.90;;;;;;5034063;28;20052;-69
2023/06/02 05:48:49;;;;;;;16.50;4.33;;;11.30;99.90;;;;;;5059330;28;20063;-69
2023/06/02 05:51:15;;;;;;;18.23;4.37;;;11.30;99.90;;;;;;5057144;28;20045;-69
2023/06/02 05:53:41;;;;;;;16.03;4.53;;;11.40;99.90;;;;;;5035187;28;20056;-68
2023/06/02 05:56:07;;;;;;;15.60;4.30;;;11.40;99.90;;;;;;5038301;28;20047;-69
2023/06/02 05:58:37;;;;;;;21.80;5.30;;;11.40;99.90;;;;;;5055542;28;20044;-69
2023/06/02 06:01:03;;;;;;;14.80;4.30;;;11.50;99.90;;;;;;5052218;28;20076;-69
2023/06/02 06:03:29;;;;;;;14.40;4.20;;;11.50;99.90;;;;;;5019577;28;20037;-67
2023/06/02 06:05:55;;;;;;;14.30;4.47;;;11.50;99.90;;;;;;5039875;28;20056;-69
2023/06/02 06:08:20;;;;;;;22.63;4.70;;;11.50;99.90;;;;;;5006168;28;20483;-68
2023/06/02 06:10:46;;;;;;;16.70;5.37;;;11.60;99.90;;;;;;5035005;28;20037;-68
2023/06/02 06:13:12;;;;;;;16.38;4.75;;;11.60;99.90;;;;;;5034727;28;20065;-68
2023/06/02 06:15:37;;;;;;;15.27;4.53;;;11.60;99.90;;;;;;5034536;28;20458;-69
2023/06/02 06:18:03;;;;;;;16.25;4.10;;;11.60;99.90;;;;;;5022260;28;20478;-69
2023/06/02 06:20:29;;;;;;;16.98;4.40;;;11.70;99.90;;;;;;5035438;28;20052;-68
2023/06/02 06:22:54;;;;;;;22.35;5.25;;;11.70;99.90;;;;;;5056515;28;20049;-68
2023/06/02 06:25:20;;;;;;;20.88;4.70;;;11.80;99.90;;;;;;5035812;28;20096;-68
2023/06/02 06:27:46;;;;;;;18.10;4.73;;;11.80;99.90;;;;;;5056883;28;20044;-69
2023/06/02 06:30:12;;;;;;;19.08;4.95;;;11.90;99.90;;;;;;5035276;28;20120;-69
2023/06/02 06:32:37;;;;;;;17.83;4.78;;;11.90;99.90;;;;;;5052254;28;20049;-69
2023/06/02 06:35:03;;;;;;;21.03;4.93;;;12.10;99.90;;;;;;5052675;28;20048;-69
2023/06/02 06:37:29;;;;;;;19.10;4.53;;;12.10;99.90;;;;;;5058397;28;20104;-69
2023/06/02 06:39:55;;;;;;;21.10;5.47;;;12.10;99.90;;;;;;5029331;28;20058;-69
2023/06/02 06:42:22;;;;;;;19.77;5.22;;;12.20;99.90;;;;;;5026577;28;20045;-69
2023/06/02 06:44:50;;;;;;;18.55;5.10;;;12.30;99.90;;;;;;5029524;28;20056;-69
2023/06/02 06:47:17;;;;;;;21.33;5.47;;;12.30;99.90;;;;;;5037357;28;20543;-69
2023/06/02 06:49:43;;;;;;;18.42;5.65;;;12.30;99.90;;;;;;5037087;28;20053;-69
2023/06/02 06:52:09;;;;;;;18.63;5.45;;;12.30;99.90;;;;;;5031948;28;20147;-70
2023/06/02 06:54:35;;;;;;;22.08;5.63;;;12.40;99.90;;;;;;5040078;28;20104;-70
2023/06/02 06:57:00;;;;;;;26.00;6.25;;;12.50;99.90;;;;;;5029056;28;20067;-69
2023/06/02 06:59:26;;;;;;;27.75;6.95;;;12.50;99.90;;;;;;5020427;28;20075;-69
2023/06/02 07:01:52;;;;;;;24.55;6.60;;;12.50;99.90;;;;;;5033055;28;20195;-69
2023/06/02 07:04:18;;;;;;;24.98;6.72;;;12.60;99.90;;;;;;5032233;28;20053;-69
2023/06/02 07:06:43;;;;;;;19.25;6.60;;;12.70;99.90;;;;;;5030535;28;20041;-69
2023/06/02 07:09:10;;;;;;;21.33;6.35;;;12.70;99.90;;;;;;5024946;28;20053;-70
2023/06/02 07:11:36;;;;;;;20.90;5.88;;;12.80;99.90;;;;;;5027389;28;20038;-68
2023/06/02 07:14:02;;;;;;;18.52;6.70;;;12.90;99.90;;;;;;5027454;28;20064;-69
2023/06/02 07:16:28;;;;;;;17.38;6.60;;;13.00;99.90;;;;;;5025631;28;20041;-70
2023/06/02 07:18:53;;;;;;;23.70;7.43;;;13.20;99.90;;;;;;5027613;28;20114;-69
2023/06/02 07:21:20;;;;;;;24.85;7.47;;;13.40;99.90;;;;;;5032441;28;20065;-69
2023/06/02 07:23:45;;;;;;;22.90;6.53;;;13.60;99.90;;;;;;5031985;28;20045;-70
2023/06/02 07:26:11;;;;;;;22.48;6.95;;;13.90;99.90;;;;;;5030840;28;20489;-69
2023/06/02 07:28:38;;;;;;;20.30;7.28;;;14.10;99.90;;;;;;5026675;28;20064;-70
2023/06/02 07:31:04;;;;;;;22.48;7.13;;;14.20;99.90;;;;;;5028767;28;20045;-69
2023/06/02 07:33:30;;;;;;;16.02;7.03;;;14.30;99.90;;;;;;5028946;28;21147;-68
2023/06/02 07:35:56;;;;;;;23.33;7.50;;;14.50;99.90;;;;;;5028313;28;20053;-77
2023/06/02 07:38:22;;;;;;;17.60;7.10;;;14.80;99.90;;;;;;5016159;28;20053;-69
2023/06/02 07:40:48;;;;;;;21.50;7.35;;;15.00;99.90;;;;;;5051983;28;20057;-70
2023/06/02 07:43:14;;;;;;;23.70;7.63;;;15.10;99.90;;;;;;5055454;28;20081;-70
2023/06/02 07:45:40;;;;;;;16.52;6.93;;;15.30;99.90;;;;;;5049074;28;20469;-69
2023/06/02 07:48:05;;;;;;;20.25;6.95;;;15.40;99.90;;;;;;5046102;28;20587;-70
2023/06/02 07:50:31;;;;;;;24.23;7.07;;;15.30;99.90;;;;;;5048044;28;20041;-69
2023/06/02 07:52:57;;;;;;;21.58;6.63;;;15.40;99.90;;;;;;5029228;28;20037;-69
2023/06/02 07:55:24;;;;;;;18.33;6.53;;;15.70;99.90;;;;;;5052722;28;20052;-69
2023/06/02 07:57:51;;;;;;;18.42;6.28;;;15.80;99.90;;;;;;5050850;28;20082;-69
2023/06/02 08:00:21;;;;;;;14.50;6.60;;;16.10;99.90;;;;;;5061093;28;20037;-69
2023/06/02 08:02:47;;;;;;;14.68;6.25;;;16.20;99.90;;;;;;5042600;28;20049;-70
2023/06/02 08:05:16;;;;;;;15.65;6.80;;;16.30;99.90;;;;;;5053316;28;20053;-69
2023/06/02 08:07:44;;;;;;;16.60;6.70;;;16.20;99.90;;;;;;5061521;28;20041;-69
2023/06/02 08:10:10;;;;;;;16.55;6.60;;;16.10;99.90;;;;;;5058295;28;20052;-69
2023/06/02 08:12:36;;;;;;;17.60;5.68;;;16.30;99.90;;;;;;5045612;28;20263;-69
2023/06/02 08:15:02;;;;;;;12.45;5.38;;;16.40;99.90;;;;;;5031744;28;20052;-69
2023/06/02 08:17:31;;;;;;;17.35;5.35;;;16.50;99.90;;;;;;5031008;28;20079;-70
2023/06/02 08:20:01;;;;;;;17.30;6.22;;;16.70;99.90;;;;;;5054270;28;21884;-70
2023/06/02 08:22:28;;;;;;;13.88;6.40;;;16.90;99.90;;;;;;5027798;28;20417;-69
2023/06/02 08:24:54;;;;;;;15.90;6.90;;;16.80;99.90;;;;;;5052964;28;20056;-70
2023/06/02 08:27:24;;;;;;;15.82;5.97;;;16.90;99.90;;;;;;5041277;28;20037;-70
2023/06/02 08:29:51;;;;;;;16.05;5.82;;;17.10;99.90;;;;;;5055482;28;20076;-69
2023/06/02 08:32:24;;;;;;;13.80;5.55;;;17.20;99.90;;;;;;5049896;28;20530;-69
2023/06/02 08:34:50;;;;;;;12.93;5.22;;;17.10;99.90;;;;;;5032259;28;20078;-69
2023/06/02 08:37:17;;;;;;;16.90;5.22;;;17.00;99.90;;;;;;5057534;28;20041;-69
2023/06/02 08:39:48;;;;;;;12.90;4.38;;;17.10;99.90;;;;;;5057771;28;20060;-69
2023/06/02 08:42:14;;;;;;;8.20;3.95;;;17.50;99.90;;;;;;5037176;28;20044;-70
2023/06/02 08:44:42;;;;;;;13.57;4.50;;;17.50;99.90;;;;;;5037804;28;20104;-69
2023/06/02 08:47:12;;;;;;;10.82;4.05;;;17.50;99.90;;;;;;5063586;28;20127;-70
2023/06/02 08:49:45;;;;;;;9.30;3.53;;;17.30;99.90;;;;;;5040490;28;20051;-69
2023/06/02 08:52:22;;;;;;;12.60;4.03;;;17.30;99.90;;;;;;5036021;28;20037;-70
2023/06/02 08:54:51;;;;;;;11.40;3.72;;;17.50;99.90;;;;;;5039780;28;20053;-69
2023/06/02 08:57:21;;;;;;;8.23;3.67;;;17.40;99.90;;;;;;5055034;28;20251;-69
2023/06/02 08:59:47;;;;;;;10.77;3.70;;;17.50;99.90;;;;;;5038206;28;20052;-69
2023/06/02 09:02:15;;;;;;;12.15;3.25;;;17.60;99.90;;;;;;5037079;28;20124;-69
2023/06/02 09:04:40;;;;;;;8.30;2.85;;;18.00;99.90;;;;;;5056408;28;20048;-69
2023/06/02 09:07:26;;;;;;;10.95;3.40;;;18.20;99.90;;;;;;5055859;28;20053;-69
2023/06/02 09:09:53;;;;;;;9.85;2.70;;;18.40;99.90;;;;;;5037681;28;20059;-69
2023/06/02 09:12:20;;;;;;;8.13;2.50;;;18.30;99.90;;;;;;5033388;28;20036;-68
2023/06/02 09:15:08;;;;;;;6.70;2.63;;;18.40;99.90;;;;;;5037725;28;20041;-69
2023/06/02 09:17:33;;;;;;;8.98;2.90;;;18.70;99.90;;;;;;5052371;28;20056;-69
2023/06/02 09:20:12;;;;;;;10.82;2.95;;;18.80;99.90;;;;;;5033725;28;22295;-69
2023/06/02 09:22:57;;;;;;;7.90;2.97;;;19.10;99.90;;;;;;5055274;28;20061;-69
2023/06/02 09:25:28;;;;;;;8.30;2.63;;;19.20;99.90;;;;;;5040829;28;20044;-69
2023/06/02 09:27:56;;;;;;;10.55;2.60;;;18.80;99.90;;;;;;5036951;28;20098;-69
2023/06/02 09:30:23;;;;;;;8.18;2.30;;;18.30;99.90;;;;;;5062034;28;20096;-69
2023/06/02 09:32:57;;;;;;;7.60;2.58;;;18.20;99.90;;;;;;5053271;28;20057;-69
2023/06/02 09:35:42;;;;;;;7.53;2.38;;;18.20;99.90;;;;;;5052759;28;20061;-70
2023/06/02 09:38:10;;;;;;;5.18;2.20;;;18.40;99.90;;;;;;5056441;28;20841;-69
2023/06/02 09:40:41;;;;;;;5.65;2.28;;;18.70;99.90;;;;;;5055375;28;20045;-70
2023/06/02 09:43:11;;;;;;;10.88;2.55;;;19.00;99.90;;;;;;5047070;28;20111;-69
2023/06/02 09:45:49;;;;;;;8.70;2.45;;;19.20;99.90;;;;;;5054846;28;20037;-69
2023/06/02 09:48:20;;;;;;;8.48;2.58;;;19.50;99.90;;;;;;5052518;28;20055;-69
2023/06/02 09:50:45;;;;;;;4.68;2.05;;;19.60;99.90;;;;;;5038327;28;20033;-69
2023/06/02 09:53:13;;;;;;;8.15;2.47;;;19.80;99.90;;;;;;5054820;28;20041;-68
2023/06/02 09:55:39;;;;;;;5.80;2.45;;;19.90;99.90;;;;;;5021209;28;20056;-69
2023/06/02 09:58:07;;;;;;;9.55;2.65;;;19.90;99.90;;;;;;5041163;28;20033;-69
2023/06/02 10:00:35;;;;;;;7.05;2.75;;;20.00;99.90;;;;;;5063771;28;20044;-69
2023/06/02 10:03:01;;;;;;;8.38;2.60;;;20.10;99.90;;;;;;5040364;28;20040;-69
2023/06/02 10:05:28;;;;;;;6.55;2.58;;;19.60;99.90;;;;;;5036482;28;20507;-69
2023/06/02 10:08:09;;;;;;;5.70;2.55;;;19.20;99.90;;;;;;5043409;28;20128;-69
2023/06/02 10:11:03;;;;;;;4.85;2.72;;;18.90;99.90;;;;;;5050788;28;20048;-70
2023/06/02 10:13:41;;;;;;;4.57;2.55;;;18.50;99.90;;;;;;5020300;28;20075;-69
2023/06/02 10:16:22;;;;;;;8.30;2.63;;;18.20;99.90;;;;;;5038538;28;20048;-69
2023/06/02 10:18:56;;;;;;;4.50;2.03;;;17.90;99.90;;;;;;5054477;28;20076;-69
2023/06/02 10:21:55;;;;;;;4.88;2.17;;;17.80;99.90;;;;;;5058818;28;20044;-68
2023/06/02 10:24:46;;;;;;;5.88;2.55;;;17.90;99.90;;;;;;5041153;28;20045;-69
2023/06/02 10:27:25;;;;;;;2.80;1.80;;;18.00;99.90;;;;;;5021972;28;20496;-69
2023/06/02 10:29:54;;;;;;;2.28;1.80;;;18.00;99.90;;;;;;5044683;28;20067;-69
2023/06/02 10:32:22;;;;;;;5.75;2.00;;;18.00;99.90;;;;;;5033639;28;20061;-69
2023/06/02 10:35:07;;;;;;;4.65;2.03;;;18.30;99.90;;;;;;5055054;28;20079;-68
2023/06/02 10:37:34;;;;;;;7.10;1.63;;;18.30;99.90;;;;;;5054130;28;20036;-69
2023/06/02 10:40:00;;;;;;;2.50;2.00;;;18.20;99.90;;;;;;5035582;28;20053;-69
2023/06/02 10:42:27;;;;;;;3.47;1.90;;;18.00;99.90;;;;;;5062740;28;20045;-68
2023/06/02 10:45:24;;;;;;;5.25;2.15;;;18.20;99.90;;;;;;5060315;28;20048;-69
2023/06/02 10:47:50;;;;;;;4.47;1.60;;;18.60;99.90;;;;;;5057621;28;20064;-69
2023/06/02 10:50:24;;;;;;;4.25;1.88;;;18.80;99.90;;;;;;5053360;28;20059;-69
2023/06/02 10:52:59;;;;;;;2.90;1.85;;;18.70;99.90;;;;;;5037079;28;20055;-69
2023/06/02 10:55:27;;;;;;;5.70;2.15;;;19.00;99.90;;;;;;5055570;28;20940;-68
2023/06/02 10:58:03;;;;;;;3.63;1.80;;;19.20;99.90;;;;;;5043824;28;20056;-68
2023/06/02 11:00:43;;;;;;;4.90;1.75;;;19.40;99.90;;;;;;5056953;28;20052;-69
2023/06/02 11:03:18;;;;;;;7.03;2.10;;;19.30;95.40;;;;;;5042766;28;20110;-68
2023/06/02 11:05:45;;;;;;;2.15;1.75;;;19.20;90.70;;;;;;5036356;28;20397;-69
2023/06/02 11:08:11;;;;;;;2.85;1.70;;;18.90;93.90;;;;;;5038245;28;20048;-68
2023/06/02 11:10:41;;;;;;;3.08;1.70;;;18.80;94.30;;;;;;5056828;28;20049;-68
2023/06/02 11:13:08;;;;;;;3.70;1.60;;;19.10;87.00;;;;;;5063495;28;20048;-69
2023/06/02 11:15:34;;;;;;;3.92;1.80;;;19.30;85.00;;;;;;5043045;28;20113;-69
2023/06/02 11:18:03;;;;;;;3.47;1.50;;;19.50;76.00;;;;;;5046884;28;20045;-69
2023/06/02 11:20:35;;;;;;;4.45;1.50;;;19.70;72.50;;;;;;5035386;28;20227;-69
2023/06/02 11:23:05;;;;;;;4.88;1.58;;;19.90;68.60;;;;;;5032009;28;20045;-69
2023/06/02 11:25:31;;;;;;;2.13;1.30;;;20.10;67.90;;;;;;5060518;28;20106;-69
2023/06/02 11:27:56;;;;;;;2.33;1.20;;;20.10;64.90;;;;;;5054756;28;20040;-69
2023/06/02 11:30:24;;;;;;;3.33;1.58;;;20.20;64.10;;;;;;5061892;28;20045;-69
2023/06/02 11:32:51;;;;;;;2.22;1.40;;;20.40;62.90;;;;;;5043360;28;20086;-70
2023/06/02 11:35:23;;;;;;;2.00;1.20;;;20.40;61.80;;;;;;5037742;28;20104;-69
2023/06/02 11:38:02;;;;;;;;;;;20.40;61.10;;;;;;5050927;28;20111;-70
2023/06/02 11:40:29;;;;;;;2.08;1.30;;;20.50;61.90;;;;;;5044967;28;19929;-75
2023/06/02 11:42:55;;;;;;;3.00;1.40;;;20.70;62.60;;;;;;5020321;28;20209;-70
2023/06/02 11:45:22;;;;;;;4.72;1.48;;;20.70;61.00;;;;;;5024923;28;20163;-68
2023/06/02 11:48:01;;;;;;;3.42;1.50;;;20.60;60.70;;;;;;5048383;28;20045;-69
2023/06/02 11:50:27;;;;;;;5.40;1.75;;;20.70;60.60;;;;;;5055289;28;20033;-69
2023/06/02 11:52:53;;;;;;;3.03;1.50;;;20.90;60.80;;;;;;5054638;28;20052;-69
2023/06/02 11:55:19;;;;;;;3.67;1.48;;;21.20;60.80;;;;;;5038860;28;20045;-69
2023/06/02 11:57:45;;;;;;;3.70;1.30;;;21.50;61.30;;;;;;5037706;28;20135;-69
2023/06/02 12:00:19;;;;;;;2.13;1.40;;;21.30;59.10;;;;;;5054014;28;20040;-69
2023/06/02 12:02:51;;;;;;;3.55;1.50;;;21.30;59.80;;;;;;5042798;28;20048;-69
2023/06/02 12:05:36;;;;;;;5.40;1.45;;;21.30;59.90;;;;;;5061468;28;20067;-69
2023/06/02 12:08:11;;;;;;;2.78;1.80;;;21.60;60.30;;;;;;5039315;28;20049;-70
2023/06/02 12:10:38;;;;;;;3.45;1.90;;;21.80;59.70;;;;;;5052629;28;20045;-69
2023/06/02 12:13:05;;;;;;;4.15;1.80;;;21.80;59.60;;;;;;5059434;28;20537;-69
2023/06/02 12:15:34;;;;;;;4.07;1.50;;;21.50;58.60;;;;;;5046370;28;20060;-69
2023/06/02 12:18:05;;;;;;;4.05;2.00;;;21.80;59.50;;;;;;5036903;28;20079;-70
2023/06/02 12:20:40;;;;;;;4.13;1.77;;;21.80;59.00;;;;;;5049057;28;20044;-70
2023/06/02 12:23:09;;;;;;;4.05;1.52;;;21.70;59.10;;;;;;5056705;28;20460;-69
2023/06/02 12:25:37;;;;;;;2.88;1.77;;;21.20;59.20;;;;;;5042574;28;20502;-70
2023/06/02 12:28:11;;;;;;;2.17;1.50;;;21.10;60.50;;;;;;5057076;28;20049;-69
2023/06/02 12:30:37;;;;;;;8.30;2.20;;;21.00;60.30;;;;;;5023742;28;20049;-69
2023/06/02 12:33:10;;;;;;;4.18;1.60;;;21.00;60.60;;;;;;5059520;28;20067;-70
2023/06/02 12:35:37;;;;;;;4.53;2.08;;;21.20;60.70;;;;;;5041957;28;20045;-70
2023/06/02 12:38:04;;;;;;;2.10;1.60;;;21.30;61.40;;;;;;5040471;28;20051;-70
2023/06/02 12:40:32;;;;;;;6.15;2.03;;;21.00;62.10;;;;;;5057888;28;20049;-69
2023/06/02 12:43:01;;;;;;;3.92;1.95;;;20.90;62.30;;;;;;5058076;28;20129;-69
2023/06/02 12:45:27;;;;;;;3.17;1.63;;;20.90;62.70;;;;;;5040349;28;20075;-69